Time;durP1;ratioP1;P1;durP2;ratioP2;P2;SDS_P1;SDS_P2;PMS_P1;PMS_P2;Temp;Humidity;BMP_temperature;BMP_pressure;BME280_temperature;BME280_humidity;BME280_pressure;Samples;Min_cycle;Max_cycle;Signal;HPM_P1;HPM_P2
2020/12/02 00:01:57;;;;;;;2.53;1.77;;;9.60;95.00;;;;;;7767254;27;20109;-77
2020/12/02 00:05:48;;;;;;;2.13;1.53;;;9.50;95.00;;;;;;7766913;27;20060;-76
2020/12/02 00:09:29;;;;;;;3.70;1.93;;;9.50;95.00;;;;;;7769206;27;20070;-78
2020/12/02 00:13:20;;;;;;;1.80;1.23;;;9.60;95.00;;;;;;7766426;28;20075;-77
2020/12/02 00:17:03;;;;;;;1.80;1.30;;;9.50;95.00;;;;;;7762077;27;20120;-77
2020/12/02 00:20:44;;;;;;;2.17;1.30;;;9.50;95.00;;;;;;7766311;27;20064;-75
2020/12/02 00:24:27;;;;;;;1.90;1.30;;;9.50;95.00;;;;;;7769823;27;20164;-78
2020/12/02 00:28:12;;;;;;;1.90;1.30;;;9.50;95.10;;;;;;7775752;27;20444;-78
2020/12/02 00:31:53;;;;;;;1.83;1.10;;;9.50;95.00;;;;;;7765527;27;20143;-76
2020/12/02 00:35:36;;;;;;;2.17;1.40;;;9.50;95.00;;;;;;7765618;27;20116;-76
2020/12/02 00:39:17;;;;;;;1.50;1.20;;;9.60;95.10;;;;;;7768729;27;20051;-80
2020/12/02 00:42:59;;;;;;;1.17;0.90;;;9.60;95.00;;;;;;7770404;27;20062;-77
2020/12/02 00:46:46;;;;;;;1.17;0.83;;;9.60;95.00;;;;;;7765318;27;20550;-80
2020/12/02 00:50:27;;;;;;;2.25;0.70;;;9.70;95.00;;;;;;7766482;27;20059;-76
2020/12/02 00:54:09;;;;;;;1.00;0.80;;;9.60;95.00;;;;;;7768535;27;20059;-76
2020/12/02 00:57:52;;;;;;;1.53;0.80;;;9.70;95.10;;;;;;7766457;27;20059;-74
2020/12/02 01:01:45;;;;;;;0.60;0.60;;;9.70;95.20;;;;;;7767640;27;20135;-75
2020/12/02 01:05:27;;;;;;;1.10;0.70;;;9.70;95.20;;;;;;7763098;27;20364;-76
2020/12/02 01:09:09;;;;;;;1.20;0.80;;;9.70;95.30;;;;;;7767733;27;20523;-75
2020/12/02 01:12:50;;;;;;;5.70;2.67;;;9.80;95.40;;;;;;7764567;27;20409;-75
2020/12/02 01:16:36;;;;;;;6.30;3.73;;;9.90;95.40;;;;;;7761290;28;20142;-76
2020/12/02 01:20:17;;;;;;;5.77;3.20;;;9.90;95.10;;;;;;7762048;27;20131;-76
2020/12/02 01:24:01;;;;;;;5.30;2.07;;;9.80;95.00;;;;;;7767300;27;20095;-74
2020/12/02 01:27:57;;;;;;;2.47;1.47;;;9.80;95.10;;;;;;7769011;27;20147;-76
2020/12/02 01:31:40;;;;;;;2.40;1.70;;;9.90;95.00;;;;;;7762428;27;20529;-74
2020/12/02 01:35:25;;;;;;;3.67;1.97;;;9.80;95.10;;;;;;7768739;27;20054;-74
2020/12/02 01:39:07;;;;;;;3.40;1.80;;;9.80;95.10;;;;;;7775479;27;20051;-73
2020/12/02 01:42:55;;;;;;;2.17;1.30;;;9.80;95.10;;;;;;7759568;28;20348;-74
2020/12/02 01:46:58;;;;;;;1.60;1.30;;;9.80;95.10;;;;;;7751918;27;20629;-75
2020/12/02 01:51:02;;;;;;;1.27;1.00;;;9.80;95.00;;;;;;7767636;27;20443;-74
2020/12/02 01:54:47;;;;;;;1.20;0.80;;;9.80;95.20;;;;;;7757274;28;20105;-75
2020/12/02 01:59:06;;;;;;;2.27;1.20;;;9.80;95.20;;;;;;7778909;27;20051;-75
2020/12/02 02:03:10;;;;;;;1.63;1.10;;;9.90;95.20;;;;;;7656604;28;20706;-74
2020/12/02 02:07:09;;;;;;;1.47;1.00;;;9.90;94.90;;;;;;7767872;27;20134;-76
2020/12/02 02:10:52;;;;;;;1.13;0.80;;;9.90;94.90;;;;;;7762190;28;20675;-76
2020/12/02 02:15:02;;;;;;;0.80;0.60;;;9.80;94.90;;;;;;7778595;27;20353;-75
2020/12/02 02:18:43;;;;;;;1.97;0.90;;;9.80;94.80;;;;;;7748255;28;20058;-76
2020/12/02 02:22:25;;;;;;;1.13;0.70;;;9.80;95.00;;;;;;7779043;27;20520;-74
2020/12/02 02:26:33;;;;;;;0.63;0.60;;;9.70;94.90;;;;;;7777920;27;20063;-77
2020/12/02 02:30:16;;;;;;;1.33;0.60;;;9.70;94.80;;;;;;7770852;27;20092;-75
2020/12/02 02:33:58;;;;;;;0.80;0.70;;;9.60;94.90;;;;;;7778532;28;20107;-76
2020/12/02 02:37:40;;;;;;;0.73;0.70;;;9.60;94.90;;;;;;7780182;28;20099;-75
2020/12/02 02:41:25;;;;;;;0.90;0.70;;;9.60;94.90;;;;;;7767513;28;20083;-75
2020/12/02 02:45:11;;;;;;;1.00;0.90;;;9.60;95.20;;;;;;7775416;28;20484;-75
2020/12/02 02:48:53;;;;;;;;;;;9.60;95.00;;;;;;7775583;28;20059;-78
2020/12/02 02:52:34;;;;;;;0.73;0.63;;;9.40;94.80;;;;;;7781985;28;20308;-74
2020/12/02 02:56:16;;;;;;;1.67;0.97;;;9.50;95.00;;;;;;7777989;28;20086;-75
2020/12/02 02:59:58;;;;;;;1.30;1.00;;;9.40;95.00;;;;;;7777993;28;20119;-76
2020/12/02 03:03:39;;;;;;;1.47;0.97;;;9.40;95.00;;;;;;7745650;28;20134;-76
2020/12/02 03:07:21;;;;;;;1.83;1.10;;;9.30;95.10;;;;;;7774713;28;20133;-76
2020/12/02 03:11:06;;;;;;;2.20;0.83;;;9.30;95.10;;;;;;7775659;28;20078;-77
2020/12/02 03:14:48;;;;;;;1.43;0.80;;;9.20;95.20;;;;;;7784475;28;20142;-76
2020/12/02 03:18:31;;;;;;;1.27;0.70;;;9.20;95.40;;;;;;7774859;28;20137;-76
2020/12/02 03:22:12;;;;;;;1.03;0.80;;;9.10;95.40;;;;;;7775638;28;20129;-76
2020/12/02 03:25:54;;;;;;;0.70;0.63;;;9.10;95.50;;;;;;7772356;28;20090;-75
2020/12/02 03:29:36;;;;;;;0.90;0.70;;;9.10;95.60;;;;;;7770795;28;20396;-75
2020/12/02 03:33:17;;;;;;;1.13;0.80;;;9.10;95.60;;;;;;7772490;28;20183;-76
2020/12/02 03:37:00;;;;;;;1.40;0.70;;;9.00;95.60;;;;;;7762623;28;20052;-75
2020/12/02 03:40:42;;;;;;;0.60;0.60;;;9.10;95.60;;;;;;7779171;27;20090;-75
2020/12/02 03:44:23;;;;;;;1.13;0.80;;;9.10;95.60;;;;;;7782458;27;20158;-75
2020/12/02 03:48:05;;;;;;;0.77;0.77;;;9.00;95.60;;;;;;7784892;27;20090;-75
2020/12/02 03:51:46;;;;;;;1.83;0.70;;;9.00;95.70;;;;;;7779917;27;20138;-76
2020/12/02 03:55:28;;;;;;;0.73;0.70;;;9.00;95.70;;;;;;7775217;27;20087;-75
2020/12/02 03:59:10;;;;;;;1.33;0.90;;;9.00;95.70;;;;;;7775730;27;20112;-76
2020/12/02 04:02:53;;;;;;;1.50;0.90;;;9.00;95.70;;;;;;7776407;27;20098;-76
2020/12/02 04:06:34;;;;;;;1.10;0.83;;;8.90;95.80;;;;;;7780188;27;20135;-76
2020/12/02 04:10:16;;;;;;;0.87;0.80;;;8.90;95.80;;;;;;7782044;27;20043;-75
2020/12/02 04:13:58;;;;;;;1.20;0.83;;;8.90;95.80;;;;;;7791681;27;20398;-76
2020/12/02 04:17:40;;;;;;;1.40;0.90;;;8.90;95.80;;;;;;7794665;27;20101;-76
2020/12/02 04:21:24;;;;;;;1.10;0.80;;;8.90;95.90;;;;;;7791657;27;20130;-76
2020/12/02 04:25:06;;;;;;;1.23;0.90;;;8.80;95.90;;;;;;7782544;27;20126;-76
2020/12/02 04:28:48;;;;;;;1.90;0.97;;;8.80;95.90;;;;;;7774589;27;20095;-76
2020/12/02 04:32:29;;;;;;;1.20;0.80;;;8.80;95.90;;;;;;7775083;27;20134;-76
2020/12/02 04:36:11;;;;;;;1.60;1.00;;;8.80;95.90;;;;;;7779839;27;20055;-76
2020/12/02 04:39:52;;;;;;;0.70;0.70;;;8.80;95.90;;;;;;7781291;27;20526;-76
2020/12/02 04:43:38;;;;;;;0.70;0.70;;;8.80;95.90;;;;;;7782091;27;20063;-77
2020/12/02 04:47:19;;;;;;;0.77;0.73;;;8.80;95.90;;;;;;7781533;27;20139;-76
2020/12/02 04:51:04;;;;;;;1.37;0.70;;;8.80;95.90;;;;;;7773022;27;20090;-76
2020/12/02 04:54:49;;;;;;;0.90;0.80;;;8.80;95.90;;;;;;7778900;27;20467;-76
2020/12/02 04:58:33;;;;;;;1.10;0.80;;;8.80;95.90;;;;;;7748714;27;20087;-77
2020/12/02 05:02:27;;;;;;;0.67;0.60;;;8.80;95.90;;;;;;7784620;27;20091;-76
2020/12/02 05:06:08;;;;;;;1.13;0.70;;;8.80;95.80;;;;;;7780645;27;20044;-76
2020/12/02 05:10:07;;;;;;;0.67;0.67;;;8.80;95.90;;;;;;7774462;27;20063;-75
2020/12/02 05:13:59;;;;;;;1.83;0.70;;;8.80;95.80;;;;;;7780628;27;20066;-76
2020/12/02 05:17:40;;;;;;;0.97;0.70;;;8.80;95.80;;;;;;7775912;27;20087;-76
2020/12/02 05:21:22;;;;;;;1.50;0.70;;;8.80;95.80;;;;;;7780467;27;20487;-75
2020/12/02 05:25:06;;;;;;;0.57;0.57;;;8.80;95.80;;;;;;7764735;27;20059;-75
2020/12/02 05:28:49;;;;;;;1.07;0.73;;;8.90;96.00;;;;;;7778209;27;20464;-75
2020/12/02 05:32:31;;;;;;;1.83;1.00;;;8.90;95.80;;;;;;7773533;27;20638;-76
2020/12/02 05:36:17;;;;;;;1.57;0.97;;;8.90;95.80;;;;;;7780073;27;20471;-75
2020/12/02 05:40:03;;;;;;;1.10;0.88;;;8.90;95.80;;;;;;7777563;27;20050;-76
2020/12/02 05:43:54;;;;;;;0.70;0.70;;;8.90;95.80;;;;;;7774660;27;20351;-76
2020/12/02 05:47:35;;;;;;;1.93;1.00;;;8.90;96.00;;;;;;7775821;27;20066;-75
2020/12/02 05:51:20;;;;;;;1.77;0.90;;;8.90;95.80;;;;;;7774346;27;20423;-76
2020/12/02 05:55:15;;;;;;;2.47;1.03;;;8.90;95.80;;;;;;7768654;27;20059;-76
2020/12/02 05:58:58;;;;;;;1.35;0.90;;;8.90;95.80;;;;;;7777769;27;20091;-76
2020/12/02 06:02:39;;;;;;;1.70;1.00;;;8.80;95.90;;;;;;7776898;27;20139;-76
2020/12/02 06:06:22;;;;;;;1.00;0.77;;;8.80;95.90;;;;;;7775283;27;20055;-76
2020/12/02 06:10:04;;;;;;;1.30;1.00;;;8.80;96.00;;;;;;7776541;27;20094;-76
2020/12/02 06:13:53;;;;;;;1.83;1.20;;;8.80;96.00;;;;;;7775892;27;20063;-76
2020/12/02 06:17:35;;;;;;;1.23;1.00;;;8.80;96.00;;;;;;7783922;27;20156;-75
2020/12/02 06:21:46;;;;;;;1.00;0.90;;;8.80;96.10;;;;;;7767307;27;20052;-76
2020/12/02 06:25:45;;;;;;;1.40;0.90;;;8.80;96.10;;;;;;7746278;27;20056;-76
2020/12/02 06:29:35;;;;;;;3.10;1.30;;;8.80;96.10;;;;;;7756915;28;20066;-77
2020/12/02 06:33:21;;;;;;;1.43;1.03;;;8.70;96.50;;;;;;7770001;28;20058;-76
2020/12/02 06:37:11;;;;;;;2.00;1.10;;;8.70;96.30;;;;;;7769730;27;20062;-76
2020/12/02 06:40:59;;;;;;;1.80;1.23;;;8.70;96.40;;;;;;7752367;28;20075;-78
2020/12/02 06:44:58;;;;;;;2.40;1.07;;;8.80;96.60;;;;;;7767746;28;20639;-76
2020/12/02 06:48:39;;;;;;;1.17;0.90;;;8.80;96.70;;;;;;7759422;28;20094;-76
2020/12/02 06:52:26;;;;;;;1.33;1.00;;;8.90;96.70;;;;;;7779078;28;20225;-75
2020/12/02 06:56:16;;;;;;;1.40;1.00;;;8.90;96.80;;;;;;7778358;28;20436;-76
2020/12/02 07:00:00;;;;;;;1.47;1.00;;;9.00;96.80;;;;;;7778770;28;20090;-76
2020/12/02 07:03:44;;;;;;;2.13;1.13;;;9.10;96.90;;;;;;7777865;28;20092;-76
2020/12/02 07:07:25;;;;;;;1.07;0.80;;;9.20;97.00;;;;;;7768362;28;20465;-76
2020/12/02 07:11:12;;;;;;;1.57;0.97;;;9.30;97.00;;;;;;7784566;28;20162;-77
2020/12/02 07:14:59;;;;;;;2.27;1.10;;;9.30;97.00;;;;;;7765711;27;20329;-75
2020/12/02 07:18:46;;;;;;;1.42;1.13;;;9.50;97.00;;;;;;7778915;27;20127;-76
2020/12/02 07:22:36;;;;;;;1.63;0.93;;;9.50;97.00;;;;;;7775457;27;20630;-76
2020/12/02 07:26:19;;;;;;;1.57;0.90;;;9.60;97.00;;;;;;7768790;27;20063;-76
2020/12/02 07:30:05;;;;;;;0.93;0.63;;;9.70;97.00;;;;;;7771905;27;20056;-76
2020/12/02 07:34:17;;;;;;;2.10;0.90;;;9.80;97.00;;;;;;7765507;27;20091;-76
2020/12/02 07:38:09;;;;;;;0.97;0.80;;;9.90;96.70;;;;;;7756941;27;20143;-78
2020/12/02 07:41:56;;;;;;;1.70;1.13;;;10.10;96.80;;;;;;7787681;27;20101;-76
2020/12/02 07:45:38;;;;;;;2.03;0.93;;;10.10;96.70;;;;;;7782911;27;20051;-76
2020/12/02 07:49:20;;;;;;;2.03;1.00;;;10.20;96.60;;;;;;7781847;27;20503;-77
2020/12/02 07:53:29;;;;;;;1.20;0.90;;;10.30;96.50;;;;;;7768332;27;20087;-78
2020/12/02 07:57:13;;;;;;;1.60;1.13;;;10.40;96.30;;;;;;7755022;27;20095;-77
2020/12/02 08:01:03;;;;;;;1.27;0.87;;;10.50;96.40;;;;;;7761417;27;20289;-77
2020/12/02 08:04:48;;;;;;;1.47;1.03;;;10.50;96.40;;;;;;7762043;27;20134;-77
2020/12/02 08:08:29;;;;;;;1.60;1.20;;;10.50;96.30;;;;;;7765058;27;20142;-77
2020/12/02 08:12:12;;;;;;;2.90;1.33;;;10.60;96.30;;;;;;7765498;27;20102;-76
2020/12/02 08:15:57;;;;;;;3.07;1.83;;;10.60;96.20;;;;;;7766637;27;20192;-77
2020/12/02 08:19:42;;;;;;;2.60;1.40;;;10.50;96.20;;;;;;7763272;27;20079;-77
2020/12/02 08:23:28;;;;;;;2.27;1.30;;;10.50;96.30;;;;;;7759599;27;20094;-78
2020/12/02 08:27:15;;;;;;;3.00;1.60;;;10.50;96.40;;;;;;7760885;27;20063;-76
2020/12/02 08:31:21;;;;;;;2.95;1.48;;;10.50;96.50;;;;;;7763171;27;20443;-77
2020/12/02 08:35:25;;;;;;;4.18;2.17;;;10.50;96.30;;;;;;7801580;27;20390;-78
2020/12/02 08:39:08;;;;;;;3.73;1.60;;;10.50;96.40;;;;;;7773586;27;20065;-75
2020/12/02 08:42:49;;;;;;;3.00;1.57;;;10.50;96.60;;;;;;7773145;27;20405;-75
2020/12/02 08:46:31;;;;;;;2.37;1.23;;;10.60;96.60;;;;;;7767765;27;20169;-77
2020/12/02 08:50:26;;;;;;;2.00;1.30;;;10.60;96.60;;;;;;7768068;27;20066;-76
2020/12/02 08:54:13;;;;;;;1.73;0.80;;;10.70;96.60;;;;;;7779499;27;20107;-81
2020/12/02 08:57:54;;;;;;;;;;;10.80;96.70;;;;;;7762284;27;20440;-78
2020/12/02 09:01:36;;;;;;;3.77;2.07;;;10.70;96.60;;;;;;7775604;27;20381;-78
2020/12/02 09:05:18;;;;;;;2.63;1.10;;;10.80;96.80;;;;;;7769825;27;20411;-76
2020/12/02 09:09:00;;;;;;;6.20;2.07;;;10.90;96.80;;;;;;7766043;27;20059;-76
2020/12/02 09:12:41;;;;;;;3.73;1.80;;;11.00;96.70;;;;;;7766786;27;20103;-78
2020/12/02 09:16:26;;;;;;;1.50;1.10;;;11.00;96.70;;;;;;7765054;27;20060;-79
2020/12/02 09:20:08;;;;;;;2.93;1.57;;;11.10;96.80;;;;;;7761257;27;20139;-79
2020/12/02 09:23:49;;;;;;;3.03;1.60;;;11.10;96.80;;;;;;7769408;27;20090;-78
2020/12/02 09:27:32;;;;;;;3.90;2.27;;;11.10;96.70;;;;;;7765271;27;20071;-76
2020/12/02 09:31:13;;;;;;;2.50;1.63;;;11.20;96.60;;;;;;7763508;27;20056;-76
2020/12/02 09:34:55;;;;;;;3.43;1.53;;;11.30;96.50;;;;;;7763297;27;20058;-77
2020/12/02 09:38:38;;;;;;;4.40;1.83;;;11.40;96.30;;;;;;7761986;27;20131;-78
2020/12/02 09:42:56;;;;;;;2.10;1.30;;;11.40;96.20;;;;;;7758463;27;20059;-77
2020/12/02 09:46:42;;;;;;;2.47;1.30;;;11.50;96.00;;;;;;7757972;27;20348;-78
2020/12/02 09:50:23;;;;;;;1.35;0.95;;;11.50;96.00;;;;;;7759690;27;20130;-77
2020/12/02 09:54:10;;;;;;;1.20;0.80;;;11.60;96.00;;;;;;7759536;27;20064;-77
2020/12/02 09:57:53;;;;;;;2.90;1.10;;;11.70;96.00;;;;;;7760020;27;20050;-77
2020/12/02 10:01:49;;;;;;;1.47;1.00;;;11.70;96.10;;;;;;7775463;27;20083;-77
2020/12/02 10:05:51;;;;;;;1.30;1.00;;;11.70;96.00;;;;;;7765424;27;20198;-78
2020/12/02 10:09:50;;;;;;;1.50;0.97;;;11.70;96.00;;;;;;7761963;27;20102;-79
2020/12/02 10:13:50;;;;;;;1.50;0.90;;;11.80;96.10;;;;;;7759412;27;20067;-77
2020/12/02 10:17:53;;;;;;;2.20;0.77;;;11.80;96.20;;;;;;7756631;27;20134;-79
2020/12/02 10:21:40;;;;;;;1.07;0.80;;;11.80;96.20;;;;;;7756702;28;20178;-78
2020/12/02 10:25:46;;;;;;;2.30;0.70;;;11.90;96.20;;;;;;7755573;27;20059;-78
2020/12/02 10:29:32;;;;;;;1.47;0.90;;;11.90;96.10;;;;;;7754293;28;20094;-78
2020/12/02 10:33:33;;;;;;;;;;;11.90;96.10;;;;;;7756946;28;20082;-77
2020/12/02 10:37:27;;;;;;;1.30;0.93;;;11.80;96.00;;;;;;7762859;28;19938;-80
2020/12/02 10:41:39;;;;;;;1.33;1.03;;;11.90;96.20;;;;;;7772705;28;20067;-79
2020/12/02 10:45:23;;;;;;;1.60;0.97;;;11.90;96.10;;;;;;7774326;28;20156;-79
2020/12/02 10:49:30;;;;;;;0.83;0.80;;;11.90;96.30;;;;;;7775599;27;20336;-78
2020/12/02 10:53:14;;;;;;;0.88;0.70;;;11.90;96.20;;;;;;7774628;27;20101;-79
2020/12/02 10:56:57;;;;;;;1.70;0.90;;;12.00;96.30;;;;;;7771333;27;20064;-78
2020/12/02 11:00:38;;;;;;;1.40;0.80;;;12.00;96.20;;;;;;7770834;27;20560;-79
2020/12/02 11:04:21;;;;;;;0.80;0.70;;;12.00;96.10;;;;;;7781904;27;20065;-78
2020/12/02 11:08:22;;;;;;;1.83;0.80;;;12.10;96.10;;;;;;7781384;27;20090;-82
2020/12/02 11:12:17;;;;;;;1.30;0.53;;;12.10;96.00;;;;;;7761006;27;20347;-82
2020/12/02 11:16:07;;;;;;;1.57;0.70;;;12.20;96.00;;;;;;7767044;27;20401;-83
2020/12/02 11:20:09;;;;;;;0.87;0.60;;;12.20;96.00;;;;;;7760129;27;20132;-79
2020/12/02 11:24:00;;;;;;;0.50;0.50;;;12.30;95.80;;;;;;7765026;27;20419;-79
2020/12/02 11:27:44;;;;;;;0.83;0.60;;;12.40;95.80;;;;;;7760868;27;20095;-77
2020/12/02 11:31:25;;;;;;;1.27;0.73;;;12.40;95.90;;;;;;7779472;27;20082;-76
2020/12/02 11:35:25;;;;;;;1.03;0.93;;;12.50;95.80;;;;;;7781195;27;20419;-78
2020/12/02 11:39:12;;;;;;;0.93;0.63;;;12.60;95.60;;;;;;7781297;27;20052;-79
2020/12/02 11:43:18;;;;;;;2.17;0.70;;;12.70;95.80;;;;;;7768540;27;20396;-78
2020/12/02 11:47:11;;;;;;;0.53;0.53;;;12.80;95.70;;;;;;7767186;27;20090;-78
2020/12/02 11:51:15;;;;;;;1.13;0.70;;;12.80;95.90;;;;;;7761877;27;20043;-79
2020/12/02 11:54:56;;;;;;;0.70;0.60;;;12.80;95.80;;;;;;7765623;27;20112;-77
2020/12/02 11:58:38;;;;;;;0.93;0.90;;;12.90;96.00;;;;;;7770614;27;20086;-76
2020/12/02 12:02:44;;;;;;;1.53;0.90;;;12.90;96.00;;;;;;7771453;27;20742;-79
2020/12/02 12:06:29;;;;;;;0.77;0.70;;;12.90;95.80;;;;;;7771223;27;20095;-80
2020/12/02 12:10:32;;;;;;;0.87;0.60;;;12.90;95.90;;;;;;7769530;27;20134;-78
2020/12/02 12:14:52;;;;;;;4.40;1.17;;;12.90;96.00;;;;;;7765009;27;20615;-78
2020/12/02 12:18:45;;;;;;;1.57;0.90;;;13.00;95.80;;;;;;7766790;27;20052;-78
2020/12/02 12:22:32;;;;;;;1.87;1.10;;;13.00;96.00;;;;;;7769817;27;20527;-77
2020/12/02 12:26:14;;;;;;;2.50;1.17;;;13.00;95.90;;;;;;7777165;27;20131;-77
2020/12/02 12:29:57;;;;;;;1.93;1.00;;;13.00;96.00;;;;;;7765677;27;20615;-77
2020/12/02 12:33:46;;;;;;;3.13;1.33;;;13.00;96.00;;;;;;7764071;27;20051;-77
2020/12/02 12:37:37;;;;;;;1.17;0.90;;;12.90;96.00;;;;;;7776375;27;20138;-77
2020/12/02 12:41:22;;;;;;;2.07;0.70;;;13.00;96.10;;;;;;7774570;27;20439;-77
2020/12/02 12:45:10;;;;;;;1.10;0.80;;;12.90;96.20;;;;;;7781176;27;20091;-77
2020/12/02 12:48:54;;;;;;;0.87;0.70;;;12.90;96.20;;;;;;7779395;27;20060;-76
2020/12/02 12:52:37;;;;;;;1.03;0.83;;;13.00;96.20;;;;;;7778603;27;20056;-78
2020/12/02 12:56:20;;;;;;;2.10;1.03;;;13.00;96.10;;;;;;7779709;27;20458;-77
2020/12/02 13:00:07;;;;;;;1.87;0.90;;;13.00;96.00;;;;;;7776838;27;20063;-77
2020/12/02 13:03:51;;;;;;;1.03;0.70;;;13.10;95.90;;;;;;7779313;27;20436;-76
2020/12/02 13:07:39;;;;;;;1.17;0.80;;;13.10;95.90;;;;;;7780487;27;20055;-78
2020/12/02 13:11:47;;;;;;;1.00;0.90;;;13.20;95.90;;;;;;7778856;27;20098;-81
2020/12/02 13:15:43;;;;;;;1.40;0.87;;;13.30;95.90;;;;;;7768009;27;20177;-76
2020/12/02 13:19:32;;;;;;;1.53;0.80;;;13.30;95.90;;;;;;7778036;27;20355;-77
2020/12/02 13:23:21;;;;;;;1.17;0.70;;;13.40;95.80;;;;;;7771547;27;20451;-78
2020/12/02 13:27:12;;;;;;;1.77;1.00;;;13.50;95.80;;;;;;7776304;27;20133;-78
2020/12/02 13:31:40;;;;;;;0.70;0.60;;;13.50;95.70;;;;;;7779894;27;20160;-78
2020/12/02 13:35:23;;;;;;;0.90;0.73;;;13.60;95.50;;;;;;7730376;27;20091;-76
2020/12/02 13:39:10;;;;;;;1.50;0.90;;;13.60;95.80;;;;;;7774836;27;20670;-76
2020/12/02 13:42:53;;;;;;;1.37;0.70;;;13.70;95.80;;;;;;7773968;27;20138;-77
2020/12/02 13:46:35;;;;;;;0.60;0.60;;;13.70;95.80;;;;;;7776507;27;20478;-78
2020/12/02 13:50:28;;;;;;;1.80;1.27;;;13.70;95.80;;;;;;7774569;27;20067;-75
2020/12/02 13:54:34;;;;;;;1.87;1.27;;;13.90;95.70;;;;;;7773588;27;20777;-77
2020/12/02 13:58:51;;;;;;;2.83;1.67;;;13.90;95.40;;;;;;7733324;27;20066;-75
2020/12/02 14:02:51;;;;;;;1.93;1.37;;;13.90;95.20;;;;;;7786710;27;20079;-77
2020/12/02 14:06:50;;;;;;;2.27;1.10;;;13.90;95.30;;;;;;7767481;27;20059;-77
2020/12/02 14:10:31;;;;;;;1.90;1.00;;;13.80;95.40;;;;;;7776968;27;20064;-77
2020/12/02 14:14:15;;;;;;;1.27;0.83;;;13.80;95.50;;;;;;7778269;27;20067;-76
2020/12/02 14:17:57;;;;;;;1.67;1.00;;;13.80;95.50;;;;;;7776712;27;20079;-76
2020/12/02 14:21:40;;;;;;;1.87;0.80;;;13.80;95.60;;;;;;7773018;27;20316;-76
2020/12/02 14:25:21;;;;;;;0.70;0.70;;;13.90;95.80;;;;;;7765420;27;20355;-76
2020/12/02 14:29:03;;;;;;;1.30;0.80;;;13.90;96.00;;;;;;7777276;27;20087;-77
2020/12/02 14:32:45;;;;;;;1.37;0.90;;;14.10;96.10;;;;;;7774527;28;20082;-76
2020/12/02 14:36:27;;;;;;;2.57;1.60;;;14.10;96.00;;;;;;7771922;28;20084;-76
2020/12/02 14:40:11;;;;;;;4.27;2.07;;;14.20;95.90;;;;;;7773396;28;20108;-75
2020/12/02 14:43:53;;;;;;;2.53;1.73;;;14.20;95.80;;;;;;7777650;28;20066;-75
2020/12/02 14:47:35;;;;;;;1.47;1.20;;;14.30;95.70;;;;;;7774690;28;20062;-75
2020/12/02 14:51:17;;;;;;;1.40;1.00;;;14.30;95.70;;;;;;7773071;28;20423;-78
2020/12/02 14:54:59;;;;;;;1.17;0.87;;;14.30;95.60;;;;;;7776218;28;20382;-77
2020/12/02 14:58:47;;;;;;;1.93;1.20;;;14.30;95.60;;;;;;7775675;28;20147;-75
2020/12/02 15:02:30;;;;;;;3.00;1.30;;;14.30;95.50;;;;;;7756013;28;20067;-75
2020/12/02 15:06:31;;;;;;;3.37;1.50;;;14.30;95.50;;;;;;7769709;28;20079;-75
2020/12/02 15:10:21;;;;;;;2.37;1.70;;;14.40;95.20;;;;;;7760461;28;20502;-78
2020/12/02 15:14:03;;;;;;;3.97;2.43;;;14.30;95.20;;;;;;7775144;28;20111;-75
2020/12/02 15:17:53;;;;;;;3.80;2.50;;;14.20;95.30;;;;;;7743042;28;20051;-75
2020/12/02 15:21:35;;;;;;;3.43;2.30;;;14.20;95.30;;;;;;7774968;28;20598;-74
2020/12/02 15:25:17;;;;;;;3.43;2.57;;;14.10;95.40;;;;;;7776641;28;20052;-76
2020/12/02 15:28:58;;;;;;;2.97;1.93;;;14.00;95.40;;;;;;7771451;28;20134;-74
2020/12/02 15:32:41;;;;;;;2.33;1.83;;;14.00;95.50;;;;;;7777005;28;20511;-78
2020/12/02 15:36:29;;;;;;;4.70;3.40;;;13.90;95.50;;;;;;7764610;27;20056;-76
2020/12/02 15:40:21;;;;;;;6.30;4.40;;;13.90;95.50;;;;;;7779002;27;20059;-76
2020/12/02 15:44:27;;;;;;;8.37;4.67;;;13.80;95.40;;;;;;7766546;27;20087;-76
2020/12/02 15:48:12;;;;;;;6.33;3.60;;;13.60;95.20;;;;;;7757945;27;20337;-77
2020/12/02 15:52:26;;;;;;;6.20;4.72;;;13.40;95.40;;;;;;7764266;27;20114;-76
2020/12/02 15:56:15;;;;;;;5.97;4.53;;;13.30;95.40;;;;;;7763536;27;20056;-77
2020/12/02 16:00:01;;;;;;;6.20;4.13;;;13.00;95.60;;;;;;7765822;27;20514;-77
2020/12/02 16:03:42;;;;;;;4.63;3.53;;;12.90;95.80;;;;;;7761180;27;20063;-78
2020/12/02 16:07:33;;;;;;;5.27;3.17;;;12.70;96.00;;;;;;7761498;27;20055;-78
2020/12/02 16:11:20;;;;;;;4.90;3.00;;;12.60;96.00;;;;;;7760130;27;20056;-77
2020/12/02 16:15:14;;;;;;;3.77;2.20;;;12.50;96.10;;;;;;7757929;27;20047;-78
2020/12/02 16:18:56;;;;;;;5.13;2.20;;;12.40;96.00;;;;;;7760152;27;20495;-77
2020/12/02 16:23:15;;;;;;;5.07;3.20;;;12.20;96.20;;;;;;7778361;27;20063;-78
2020/12/02 16:27:01;;;;;;;9.37;3.80;;;12.10;96.30;;;;;;7774556;27;20512;-77
2020/12/02 16:30:43;;;;;;;4.73;2.73;;;12.00;96.80;;;;;;7763892;27;20056;-77
2020/12/02 16:34:24;;;;;;;4.33;2.47;;;11.90;96.90;;;;;;7779925;27;20141;-76
2020/12/02 16:38:12;;;;;;;5.10;2.70;;;11.90;97.00;;;;;;7776200;27;20680;-78
2020/12/02 16:42:15;;;;;;;4.10;3.00;;;11.90;97.20;;;;;;7759171;27;20142;-77
2020/12/02 16:46:15;;;;;;;5.60;2.97;;;11.90;97.30;;;;;;7761095;27;20083;-76
2020/12/02 16:49:59;;;;;;;4.53;2.13;;;11.90;97.40;;;;;;7765480;27;20083;-78
2020/12/02 16:53:53;;;;;;;3.57;2.10;;;11.80;97.30;;;;;;7766458;27;20130;-78
2020/12/02 16:57:38;;;;;;;3.03;1.57;;;11.80;97.00;;;;;;7771940;27;20111;-78
2020/12/02 17:01:25;;;;;;;3.97;1.60;;;11.70;96.80;;;;;;7767326;27;20104;-76
2020/12/02 17:05:13;;;;;;;;;;;11.70;96.50;;;;;;7760546;27;20056;-78
2020/12/02 17:08:55;;;;;;;2.08;1.30;;;11.50;96.30;;;;;;7769655;27;19927;-77
2020/12/02 17:13:07;;;;;;;2.90;1.00;;;11.40;96.40;;;;;;7769413;27;20669;-76
2020/12/02 17:17:11;;;;;;;1.17;1.00;;;11.30;96.00;;;;;;7771120;27;20090;-76
2020/12/02 17:20:57;;;;;;;3.10;1.07;;;11.20;95.90;;;;;;7770584;27;20130;-78
2020/12/02 17:25:16;;;;;;;3.53;1.17;;;11.10;95.90;;;;;;7776280;27;20122;-76
2020/12/02 17:29:37;;;;;;;2.70;1.17;;;10.90;95.60;;;;;;7772678;27;20145;-82
2020/12/02 17:33:37;;;;;;;4.97;1.60;;;10.80;95.50;;;;;;7774925;27;20090;-76
2020/12/02 17:37:39;;;;;;;7.17;1.90;;;10.60;95.50;;;;;;7778825;27;20108;-76
2020/12/02 17:41:23;;;;;;;4.53;2.33;;;10.50;95.50;;;;;;7764646;27;20154;-77
2020/12/02 17:45:29;;;;;;;4.77;1.80;;;10.30;95.50;;;;;;7771389;27;20425;-76
2020/12/02 17:49:33;;;;;;;6.77;2.17;;;10.30;95.40;;;;;;7776660;27;20055;-76
2020/12/02 17:53:18;;;;;;;6.77;1.97;;;10.20;95.50;;;;;;7774085;27;20459;-76
2020/12/02 17:57:03;;;;;;;4.63;1.43;;;10.10;95.50;;;;;;7776066;27;20086;-76
2020/12/02 18:01:14;;;;;;;4.17;1.63;;;10.00;95.50;;;;;;7764821;27;20459;-76
2020/12/02 18:05:04;;;;;;;3.30;1.20;;;10.00;95.20;;;;;;7754584;28;20131;-80
2020/12/02 18:08:56;;;;;;;1.80;1.00;;;9.90;95.40;;;;;;7759245;27;20596;-77
2020/12/02 18:13:09;;;;;;;4.23;1.50;;;9.80;95.40;;;;;;7761856;27;20143;-76
2020/12/02 18:16:57;;;;;;;4.63;1.47;;;9.70;95.20;;;;;;7762340;27;20100;-77
2020/12/02 18:20:57;;;;;;;4.77;1.93;;;9.60;95.20;;;;;;7781372;27;20137;-77
2020/12/02 18:25:12;;;;;;;4.87;1.77;;;9.60;94.90;;;;;;7758351;27;20331;-77
2020/12/02 18:29:26;;;;;;;3.73;1.60;;;9.50;94.90;;;;;;7766646;27;20083;-77
2020/12/02 18:33:29;;;;;;;5.87;1.87;;;9.50;94.70;;;;;;7774652;28;20066;-77
2020/12/02 18:37:35;;;;;;;8.83;2.17;;;9.40;94.70;;;;;;7767154;28;20562;-77
2020/12/02 18:41:32;;;;;;;5.70;1.93;;;9.30;94.40;;;;;;7762509;28;20423;-76
2020/12/02 18:45:19;;;;;;;6.75;2.45;;;9.20;94.40;;;;;;7761095;28;20412;-78
2020/12/02 18:49:03;;;;;;;7.00;2.47;;;9.10;94.20;;;;;;7765440;28;20604;-77
2020/12/02 18:52:46;;;;;;;4.13;1.40;;;9.00;94.20;;;;;;7754993;28;20067;-78
2020/12/02 18:56:38;;;;;;;3.40;1.53;;;8.90;94.30;;;;;;7760476;28;20065;-78
2020/12/02 19:00:23;;;;;;;3.10;1.23;;;8.90;94.30;;;;;;7761037;28;20471;-79
2020/12/02 19:04:05;;;;;;;5.50;1.53;;;8.70;94.30;;;;;;7771351;28;20048;-80
2020/12/02 19:08:01;;;;;;;2.47;1.27;;;8.60;94.40;;;;;;7761009;28;20139;-77
2020/12/02 19:12:01;;;;;;;2.00;1.20;;;8.60;94.50;;;;;;7747884;27;20184;-79
2020/12/02 19:16:04;;;;;;;6.90;2.05;;;8.50;94.50;;;;;;7785590;27;20105;-79
2020/12/02 19:19:58;;;;;;;3.53;1.47;;;8.40;94.70;;;;;;7769589;27;20060;-80
2020/12/02 19:24:07;;;;;;;3.13;1.20;;;8.40;94.80;;;;;;7784416;27;20139;-79
2020/12/02 19:28:03;;;;;;;5.53;1.30;;;8.40;94.70;;;;;;7779138;27;20090;-76
2020/12/02 19:31:53;;;;;;;6.65;1.63;;;8.30;95.00;;;;;;7796920;27;20104;-78
2020/12/02 19:35:53;;;;;;;3.83;1.40;;;8.30;95.00;;;;;;7781450;27;20087;-77
2020/12/02 19:39:59;;;;;;;1.00;0.70;;;8.30;94.90;;;;;;7779776;27;20420;-78
2020/12/02 19:44:01;;;;;;;3.33;1.15;;;8.30;94.90;;;;;;7764859;27;20048;-76
2020/12/02 19:48:21;;;;;;;1.20;0.90;;;8.30;94.90;;;;;;7764097;27;20051;-76
2020/12/02 19:52:07;;;;;;;1.80;0.97;;;8.30;94.70;;;;;;7765741;27;20135;-79
2020/12/02 19:55:54;;;;;;;1.70;1.10;;;8.20;94.90;;;;;;7758087;27;20120;-76
2020/12/02 19:59:45;;;;;;;;;;;8.20;94.90;;;;;;7767771;27;20130;-78
2020/12/02 20:03:53;;;;;;;2.53;1.33;;;8.10;94.80;;;;;;7801342;27;19968;-76